Flight Track Log - Related Links

Times and Time Zones

All times are in EDT time to prevent confusion due to time zone crossing. See the TAM3228 flight status page for this flight to view local times or setup timezone preferences in your user account.

Time Position Orientation Groundspeed Altitude Reporting Facility
EDT Latitude Longitude Course Direction KTS MPH feet Rate Location/Type
Thu 08:33:15 PM -23.6250 -46.6590 42° Northeast  Level FlightAware ADS-B
Thu 08:37:58 PM -23.6350 -46.6510 32° Northeast 559 Level FlightAware ADS-B
Thu 08:38:00 PM -23.4714 -46.5426 32° Northeast  Level Estimated
Thu 08:39:11 PM -23.6250 -46.6580 327° Northwest  Level FlightAware ADS-B
Thu 08:39:31 PM -23.6090 -46.6680 330° Northwest 151 174 3,500 7,688 Climbing FlightAware ADS-B
Thu 08:39:43 PM -23.6020 -46.6730 327° Northwest 145 167 4,100 3,000 Climbing FlightAware ADS-B
Thu 08:39:47 PM -23.5990 -46.6730 360° North 144 166 4,300 2,667 Climbing FlightAware ADS-B
Thu 08:39:52 PM -23.5960 -46.6730 360° North 145 167 4,500 1,920 Climbing FlightAware ADS-B
Thu 08:40:12 PM -23.5870 -46.6700 17° North 146 168 5,100 1,742 Climbing FlightAware ADS-B
Thu 08:40:23 PM -23.5830 -46.6660 43° Northeast 152 175 5,400 1,875 Climbing FlightAware ADS-B
Thu 08:40:28 PM -23.5810 -46.6600 70° East 160 184 5,600 1,714 Climbing FlightAware ADS-B
Thu 08:40:37 PM -23.5810 -46.6520 90° East 165 190 5,800 414 Climbing FlightAware ADS-B
Thu 08:40:57 PM -23.5880 -46.6330 112° Southeast 221 254 5,800  Level FlightAware ADS-B
Thu 08:41:13 PM -23.5960 -46.6150 116° Southeast 259 298 5,800 130 Level FlightAware ADS-B
Thu 08:41:43 PM -23.6100 -46.5750 111° Southeast 294 338 5,900 1,527 Climbing FlightAware ADS-B
Thu 08:42:08 PM -23.6010 -46.5310 77° East 292 336 7,200 3,409 Climbing FlightAware ADS-B
Thu 08:42:27 PM -23.5940 -46.5040 74° East 296 341 8,400 3,273 Climbing FlightAware ADS-B
Thu 08:42:52 PM -23.5860 -46.4670 77° East 303 349 9,600 2,087 Climbing FlightAware ADS-B
Thu 08:43:13 PM -23.5780 -46.4340 75° East 316 364 10,000 873 Climbing FlightAware ADS-B
Thu 08:43:47 PM -23.5670 -46.3810 77° East 332 382 10,400 1,130 Climbing FlightAware ADS-B
Thu 08:44:22 PM -23.5520 -46.3170 76° East 372 428 11,300 2,314 Climbing FlightAware ADS-B
Thu 08:44:57 PM -23.5380 -46.2540 76° East 375 432 13,100 2,829 Climbing FlightAware ADS-B
Thu 08:45:32 PM -23.5140 -46.1940 66° East 377 434 14,600 2,824 Climbing FlightAware ADS-B
Thu 08:45:48 PM -23.4930 -46.1760 38° Northeast 356 410 15,500 3,943 Climbing FlightAware ADS-B
Thu 08:46:07 PM -23.4640 -46.1650 19° North 329 379 16,900 3,222 Climbing FlightAware ADS-B
Thu 08:46:42 PM -23.4090 -46.1530 11° North 343 395 18,400 1,886 Climbing FlightAware ADS-B
Thu 08:47:17 PM -23.3560 -46.1400 13° North 363 418 19,100 1,320 Climbing FlightAware ADS-B
Thu 08:47:32 PM -23.3270 -46.1360 North 368 423 19,500 2,057 Climbing FlightAware ADS-B
Thu 08:47:52 PM -23.2920 -46.1400 354° North 378 435 20,300 2,195 Climbing FlightAware ADS-B
Thu 08:48:13 PM -23.2560 -46.1450 353° North 384 442 21,000 2,426 Climbing FlightAware ADS-B
Thu 08:48:39 PM -23.2100 -46.1320 15° North 383 441 22,200 2,215 Climbing FlightAware ADS-B
Thu 08:49:18 PM -23.1490 -46.0930 30° Northeast 396 456 23,400 1,765 Climbing FlightAware ADS-B
Thu 08:49:47 PM -23.1070 -46.0660 31° Northeast 408 470 24,200 1,662 Climbing FlightAware ADS-B
Thu 08:50:23 PM -23.0430 -46.0260 30° Northeast 412 474 25,200 1,690 Climbing FlightAware ADS-B
Thu 08:50:58 PM -22.9850 -45.9900 30° Northeast 429 494 26,200 1,760 Climbing FlightAware ADS-B
Thu 08:51:38 PM -22.9130 -45.9450 30° Northeast 430 495 27,400 1,714 Climbing FlightAware ADS-B
Thu 08:52:08 PM -22.8590 -45.9110 30° Northeast 444 511 28,200 1,938 Climbing FlightAware ADS-B
Thu 08:52:43 PM -22.7990 -45.8740 30° Northeast 431 496 29,500 1,622 Climbing FlightAware ADS-B
Thu 08:53:22 PM -22.7280 -45.8290 30° Northeast 450 518 30,200 1,029 Climbing FlightAware ADS-B
Thu 08:53:53 PM -22.6720 -45.7940 30° Northeast 452 520 30,700 1,091 Climbing FlightAware ADS-B
Thu 08:54:28 PM -22.6060 -45.7530 30° Northeast 466 536 31,400 1,457 Climbing FlightAware ADS-B
Thu 08:55:03 PM -22.5420 -45.7130 30° Northeast 461 531 32,400 1,520 Climbing FlightAware ADS-B
Thu 08:55:43 PM -22.4660 -45.6660 30° Northeast 464 534 33,300 1,371 Climbing FlightAware ADS-B
Thu 08:56:13 PM -22.4120 -45.6320 30° Northeast 465 535 34,000 1,378 Climbing FlightAware ADS-B
Thu 08:56:57 PM -22.3280 -45.5800 30° Northeast 465 535 35,000 1,341 Climbing FlightAware ADS-B
Thu 08:57:38 PM -22.2520 -45.5340 29° Northeast 465 535 35,900 1,440 Climbing FlightAware ADS-B
Thu 08:58:12 PM -22.1890 -45.4940 30° Northeast 451 519 36,800 1,286 Climbing FlightAware ADS-B
Thu 08:58:48 PM -22.1230 -45.4540 29° Northeast 451 519 37,400 1,200 Climbing FlightAware ADS-B
Thu 08:59:27 PM -22.0500 -45.4090 30° Northeast 445 512 38,300 1,200 Climbing FlightAware ADS-B
Thu 08:59:58 PM -21.9950 -45.3750 30° Northeast 449 517 38,800 636 Climbing FlightAware ADS-B
Thu 09:00:33 PM -21.9310 -45.3360 29° Northeast 446 513 39,000 171 Climbing FlightAware ADS-B
Thu 09:01:08 PM -21.8680 -45.2970 30° Northeast 446 513 39,000  Level FlightAware ADS-B
Thu 09:01:48 PM -21.7950 -45.2520 30° Northeast 447 514 39,000  Level FlightAware ADS-B
Thu 09:02:19 PM -21.7390 -45.2170 30° Northeast 448 516 39,000  Level FlightAware ADS-B
Thu 09:02:54 PM -21.6780 -45.1800 29° Northeast 448 516 39,000  Level FlightAware ADS-B
Thu 09:03:29 PM -21.6110 -45.1390 30° Northeast 449 517 39,000  Level FlightAware ADS-B
Thu 09:04:05 PM -21.5470 -45.1000 30° Northeast 449 517 39,000  Level FlightAware ADS-B
Thu 09:04:39 PM -21.4810 -45.0600 29° Northeast 449 517 39,000  Level FlightAware ADS-B
Thu 09:05:14 PM -21.4160 -45.0200 30° Northeast 448 516 39,000  Level FlightAware ADS-B
Thu 09:05:49 PM -21.3540 -44.9820 30° Northeast 446 513 39,000  Level FlightAware ADS-B
Thu 09:06:24 PM -21.2900 -44.9430 30° Northeast 445 512 39,000  Level FlightAware ADS-B
Thu 09:06:59 PM -21.2260 -44.9040 30° Northeast 445 512 39,000  Level FlightAware ADS-B
Thu 09:07:34 PM -21.1640 -44.8660 30° Northeast 445 512 39,000  Level FlightAware ADS-B
Thu 09:08:07 PM -21.1010 -44.8280 29° Northeast 453 521 39,000  Level FlightAware ADS-B
Thu 09:08:52 PM -21.0170 -44.7780 29° Northeast 454 522 39,000 -675 Level FlightAware ADS-B
Thu 09:09:27 PM -20.9490 -44.7490 22° Northeast 459 528 38,100 -2,229 Descending FlightAware ADS-B
Thu 09:10:02 PM -20.8800 -44.7200 21° North 458 527 36,400 -3,138 Descending FlightAware ADS-B
Thu 09:10:32 PM -20.8190 -44.6940 22° Northeast 463 533 34,700 -3,429 Descending FlightAware ADS-B
Thu 09:11:12 PM -20.7390 -44.6600 22° Northeast 465 535 32,400 -3,600 Descending FlightAware ADS-B
Thu 09:11:47 PM -20.6710 -44.6310 22° Northeast 473 544 30,200 -4,114 Descending FlightAware ADS-B
Thu 09:12:22 PM -20.5970 -44.6000 21° North 479 551 27,600 -3,943 Descending FlightAware ADS-B
Thu 09:12:57 PM -20.5250 -44.5690 22° Northeast 483 556 25,600 -3,273 Descending FlightAware ADS-B
Thu 09:13:28 PM -20.4620 -44.5430 21° North 482 555 24,000 -3,171 Descending FlightAware ADS-B
Thu 09:14:07 PM -20.3790 -44.5070 22° Northeast 472 543 21,900 -3,162 Descending FlightAware ADS-B
Thu 09:14:42 PM -20.3100 -44.4780 22° Northeast 459 528 20,100 -2,743 Descending FlightAware ADS-B
Thu 09:15:17 PM -20.2410 -44.4490 22° Northeast 454 522 18,700 -2,400 Descending FlightAware ADS-B
Thu 09:15:52 PM -20.1740 -44.4210 21° North 441 507 17,300 -2,743 Descending FlightAware ADS-B
Thu 09:16:27 PM -20.1070 -44.3950 20° North 427 491 15,500 -3,120 Descending FlightAware ADS-B
Thu 09:17:07 PM -20.0350 -44.3680 19° North 413 475 13,400 -3,462 Descending FlightAware ADS-B
Thu 09:17:45 PM -19.9690 -44.3430 20° North 412 474 11,000 -2,301 Descending FlightAware ADS-B
Thu 09:18:20 PM -19.9100 -44.3210 19° North 366 421 10,600 -560 Descending FlightAware ADS-B
Thu 09:19:00 PM -19.8490 -44.2980 20° North 319 367 10,300 -514 Descending FlightAware ADS-B
Thu 09:19:30 PM -19.8090 -44.2830 19° North 293 337 10,000 -1,080 Descending FlightAware ADS-B
Thu 09:19:50 PM -19.7830 -44.2730 20° North 289 333 9,400 -1,756 Descending FlightAware ADS-B
Thu 09:20:11 PM -19.7580 -44.2640 19° North 288 331 8,800 -1,733 Descending FlightAware ADS-B
Thu 09:20:35 PM -19.7270 -44.2520 20° North 286 329 8,100 -1,535 Descending FlightAware ADS-B
Thu 09:20:54 PM -19.7050 -44.2440 19° North 285 328 7,700 -1,050 Descending FlightAware ADS-B
Thu 09:21:15 PM -19.6780 -44.2330 21° North 288 331 7,400 -857 Descending FlightAware ADS-B
Thu 09:21:36 PM -19.6510 -44.2230 19° North 287 330 7,100 -878 Descending FlightAware ADS-B
Thu 09:21:56 PM -19.6270 -44.2140 19° North 284 327 6,800 -900 Descending FlightAware ADS-B
Thu 09:22:16 PM -19.6010 -44.2050 18° North 281 323 6,500 -882 Descending FlightAware ADS-B
Thu 09:22:30 PM -19.5840 -44.1980 21° North 279 321 6,300 -882 Descending FlightAware ADS-B
Thu 09:22:50 PM -19.5600 -44.1890 19° North 273 314 6,000 -833 Descending FlightAware ADS-B
Thu 09:23:06 PM -19.5410 -44.1820 19° North 270 311 5,800 -1,000 Descending FlightAware ADS-B
Thu 09:23:20 PM -19.5260 -44.1700 37° Northeast 271 312 5,500 -947 Descending FlightAware ADS-B
Thu 09:23:25 PM -19.5240 -44.1680 43° Northeast 271 312 5,500 -600 Level FlightAware ADS-B
Thu 09:23:30 PM -19.5210 -44.1600 68° East 270 311 5,400 -900 Descending FlightAware ADS-B
Thu 09:23:45 PM -19.5140 -44.1410 69° East 262 302 5,200 -857 Descending FlightAware ADS-B
Thu 09:24:05 PM -19.5060 -44.1170 71° East 251 289 4,900 -800 Descending FlightAware ADS-B
Thu 09:24:15 PM -19.5030 -44.1080 71° East 246 283 4,800 -300 Descending FlightAware ADS-B
Thu 09:24:25 PM -19.5040 -44.0940 94° East 237 273 4,800  Level FlightAware ADS-B
Thu 09:24:30 PM -19.5060 -44.0890 113° Southeast 232 267 4,800  Level FlightAware ADS-B
Thu 09:24:36 PM -19.5090 -44.0860 137° Southeast 226 260 4,800  Level FlightAware ADS-B
Thu 09:24:55 PM -19.5240 -44.0700 135° Southeast 206 237 4,800 -409 Level FlightAware ADS-B
Thu 09:25:20 PM -19.5410 -44.0550 140° Southeast 189 217 4,500 -686 Descending FlightAware ADS-B
Thu 09:25:30 PM -19.5480 -44.0480 137° Southeast 186 214 4,400 -857 Descending FlightAware ADS-B
Thu 09:25:55 PM -19.5620 -44.0350 139° Southeast 162 186 4,000 -833 Descending FlightAware ADS-B
Thu 09:26:06 PM -19.5680 -44.0290 137° Southeast 157 181 3,900 -750 Descending FlightAware ADS-B
Thu 09:26:35 PM -19.5830 -44.0160 141° Southeast 141 162 3,500 -818 Descending FlightAware ADS-B
Thu 09:26:50 PM -19.5910 -44.0080 137° Southeast 138 159 3,300 -769 Descending FlightAware ADS-B
Thu 09:27:14 PM -19.6030 -43.9970 139° Southeast 138 159 3,000 -600 Descending FlightAware ADS-B
Thu 09:27:30 PM -19.6100 -43.9900 137° Southeast 139 160 2,900 -667 Descending FlightAware ADS-B
Thu 09:27:50 PM -19.6200 -43.9810 140° Southeast 137 158 2,600 -900 Descending FlightAware ADS-B
Thu 09:28:10 PM -19.6300 -43.9720 140° Southeast 120 138 -7,800 Descending FlightAware ADS-B

Login

Don't have an account? Register now (free) for customized features, flight alerts, and more!